createdAt,value
2023-05-18T00:02:01.455Z,86.80
2023-05-18T00:04:29.643Z,86.60
2023-05-18T00:06:57.127Z,86.60
2023-05-18T00:09:27.045Z,86.80
2023-05-18T00:11:53.913Z,86.60
2023-05-18T00:14:20.892Z,86.70
2023-05-18T00:16:47.879Z,86.80
2023-05-18T00:19:15.250Z,86.60
2023-05-18T00:21:42.869Z,86.90
2023-05-18T00:24:13.335Z,86.80
2023-05-18T00:26:40.657Z,86.90
2023-05-18T00:29:07.661Z,86.90
2023-05-18T00:31:38.552Z,87.00
2023-05-18T00:34:09.150Z,87.00
2023-05-18T00:36:36.256Z,87.10
2023-05-18T00:39:04.512Z,87.20
2023-05-18T00:41:31.404Z,87.20
2023-05-18T00:43:58.283Z,87.30
2023-05-18T00:46:26.000Z,87.30
2023-05-18T00:48:53.261Z,87.40
2023-05-18T00:51:20.604Z,87.20
2023-05-18T00:53:47.388Z,87.40
2023-05-18T00:56:14.117Z,87.40
2023-05-18T00:58:41.353Z,87.30
2023-05-18T01:01:09.545Z,87.30
2023-05-18T01:03:38.888Z,87.50
2023-05-18T01:06:06.695Z,87.70
2023-05-18T01:08:34.347Z,87.70
2023-05-18T01:11:22.395Z,87.90
2023-05-18T01:14:18.203Z,88.00
2023-05-18T01:17:01.986Z,88.30
2023-05-18T01:20:09.503Z,88.40
2023-05-18T01:22:57.854Z,88.40
2023-05-18T01:25:32.190Z,88.50
2023-05-18T01:28:06.528Z,88.30
2023-05-18T01:30:35.073Z,88.30
2023-05-18T01:33:06.683Z,88.40
2023-05-18T01:35:33.419Z,88.50
2023-05-18T01:38:00.205Z,88.40
2023-05-18T01:40:26.928Z,88.40
2023-05-18T01:42:56.317Z,88.40
2023-05-18T01:45:23.755Z,88.40
2023-05-18T01:47:50.624Z,88.40
2023-05-18T01:50:22.460Z,88.40
2023-05-18T01:53:05.915Z,88.40
2023-05-18T01:55:32.916Z,88.40
2023-05-18T01:57:59.620Z,88.70
2023-05-18T02:00:26.445Z,88.70
2023-05-18T02:02:53.286Z,88.70
2023-05-18T02:05:20.327Z,88.80
2023-05-18T02:07:49.998Z,88.70
2023-05-18T02:10:16.761Z,88.80
2023-05-18T02:12:43.480Z,88.80
2023-05-18T02:15:10.548Z,88.90
2023-05-18T02:17:38.315Z,89.00
2023-05-18T02:20:09.337Z,89.00
2023-05-18T02:22:36.335Z,89.00
2023-05-18T02:25:05.027Z,89.40
2023-05-18T02:27:32.373Z,89.40
2023-05-18T02:29:59.312Z,89.30
2023-05-18T02:32:26.194Z,89.40
2023-05-18T02:34:53.396Z,89.30
2023-05-18T02:37:20.164Z,89.30
2023-05-18T02:39:46.870Z,89.40
2023-05-18T02:42:13.736Z,90.10
2023-05-18T02:44:42.130Z,89.40
2023-05-18T02:47:09.290Z,90.00
2023-05-18T02:49:36.254Z,89.30
2023-05-18T02:52:03.009Z,89.30
2023-05-18T02:54:29.864Z,89.40
2023-05-18T02:56:56.978Z,89.50
2023-05-18T02:59:23.838Z,89.60
2023-05-18T03:01:50.956Z,89.90
2023-05-18T03:04:17.745Z,90.00
2023-05-18T03:06:46.531Z,90.00
2023-05-18T03:09:13.459Z,90.40
2023-05-18T03:11:40.442Z,90.00
2023-05-18T03:14:07.323Z,90.10
2023-05-18T03:16:34.154Z,90.10
2023-05-18T03:19:02.322Z,90.00
2023-05-18T03:21:33.608Z,90.00
2023-05-18T03:24:00.735Z,89.90
2023-05-18T03:26:30.810Z,89.80
2023-05-18T03:28:58.171Z,89.90
2023-05-18T03:31:25.678Z,90.00
2023-05-18T03:33:52.465Z,89.90
2023-05-18T03:36:22.540Z,89.90
2023-05-18T03:38:49.430Z,90.00
2023-05-18T03:41:16.294Z,90.00
2023-05-18T03:43:43.004Z,90.00
2023-05-18T03:46:09.803Z,89.90
2023-05-18T03:48:36.522Z,90.00
2023-05-18T03:51:03.317Z,89.80
2023-05-18T03:53:30.104Z,90.00
2023-05-18T03:55:56.963Z,89.80
2023-05-18T03:58:23.705Z,89.90
2023-05-18T04:00:50.495Z,89.90
2023-05-18T04:03:17.317Z,89.80
2023-05-18T04:05:44.848Z,89.90
2023-05-18T04:08:14.868Z,89.80
2023-05-18T04:10:43.328Z,89.60
2023-05-18T04:13:10.115Z,89.70
2023-05-18T04:15:36.919Z,89.80
2023-05-18T04:18:03.718Z,89.80
2023-05-18T04:20:30.510Z,90.20
2023-05-18T04:23:00.203Z,89.80
2023-05-18T04:25:28.162Z,89.90
2023-05-18T04:27:55.828Z,89.70
2023-05-18T04:30:23.263Z,89.90
2023-05-18T04:32:50.210Z,89.90
2023-05-18T04:35:17.054Z,89.80
2023-05-18T04:37:43.966Z,90.00
2023-05-18T04:40:13.419Z,89.90
2023-05-18T04:42:45.596Z,89.60
2023-05-18T04:45:20.345Z,90.00
2023-05-18T04:47:48.550Z,90.10
2023-05-18T04:50:18.948Z,90.10
2023-05-18T04:52:50.039Z,90.20
2023-05-18T04:55:28.355Z,90.30
2023-05-18T04:57:56.806Z,90.20
2023-05-18T05:00:24.862Z,90.20
2023-05-18T05:02:51.736Z,90.10
2023-05-18T05:05:19.059Z,90.20
2023-05-18T05:07:46.264Z,90.20
2023-05-18T05:10:13.062Z,90.20
2023-05-18T05:12:40.773Z,90.10
2023-05-18T05:15:08.285Z,90.10
2023-05-18T05:17:35.208Z,90.10
2023-05-18T05:20:02.113Z,90.20
2023-05-18T05:22:28.935Z,90.20
2023-05-18T05:24:55.758Z,90.20
2023-05-18T05:27:23.540Z,90.20
2023-05-18T05:29:50.645Z,90.20
2023-05-18T05:32:17.412Z,90.20
2023-05-18T05:34:46.838Z,90.20
2023-05-18T05:37:13.981Z,90.20
2023-05-18T05:39:40.926Z,90.00
2023-05-18T05:42:08.664Z,90.10
2023-05-18T05:44:35.857Z,90.10
2023-05-18T05:47:03.058Z,90.20
2023-05-18T05:49:29.837Z,90.10
2023-05-18T05:51:56.587Z,89.90
2023-05-18T05:54:23.320Z,89.80
2023-05-18T05:56:50.054Z,89.80
2023-05-18T05:59:16.936Z,90.00
2023-05-18T06:01:44.204Z,90.00
2023-05-18T06:04:12.529Z,89.90
2023-05-18T06:06:39.491Z,90.00
2023-05-18T06:09:06.287Z,89.90
2023-05-18T06:11:33.115Z,90.00
2023-05-18T06:14:00.220Z,90.00
2023-05-18T06:16:27.052Z,89.90
2023-05-18T06:18:54.011Z,89.90
2023-05-18T06:21:20.820Z,89.90
2023-05-18T06:23:47.581Z,89.90
2023-05-18T06:26:14.859Z,89.60
2023-05-18T06:28:41.655Z,89.60
2023-05-18T06:31:08.486Z,89.80
2023-05-18T06:33:36.218Z,89.90
2023-05-18T06:36:03.078Z,90.00
2023-05-18T06:38:29.861Z,90.00
2023-05-18T06:40:56.846Z,89.80
2023-05-18T06:43:25.480Z,89.80
2023-05-18T06:45:52.391Z,89.80
2023-05-18T06:48:19.171Z,90.00
2023-05-18T06:50:46.416Z,90.00
2023-05-18T06:53:13.560Z,90.10
2023-05-18T06:55:40.351Z,89.80
2023-05-18T06:58:08.196Z,90.00
2023-05-18T07:00:34.948Z,90.00
2023-05-18T07:03:02.020Z,90.20
2023-05-18T07:05:28.906Z,90.10
2023-05-18T07:07:55.909Z,90.10
2023-05-18T07:10:22.909Z,90.00
2023-05-18T07:12:49.979Z,90.20
2023-05-18T07:15:16.824Z,90.20
2023-05-18T07:17:45.220Z,90.10
2023-05-18T07:20:12.069Z,90.20
2023-05-18T07:22:38.792Z,90.00
2023-05-18T07:25:05.808Z,90.10
2023-05-18T07:27:34.245Z,90.00
2023-05-18T07:30:01.168Z,89.90
2023-05-18T07:32:27.947Z,89.80
2023-05-18T07:34:54.677Z,90.00
2023-05-18T07:37:21.998Z,89.90
2023-05-18T07:39:48.725Z,89.90
2023-05-18T07:42:20.546Z,90.00
2023-05-18T07:44:47.512Z,90.10
2023-05-18T07:47:14.254Z,90.00
2023-05-18T07:49:41.035Z,90.00
2023-05-18T07:52:08.627Z,89.90
2023-05-18T07:54:35.651Z,90.00
2023-05-18T07:57:02.446Z,89.80
2023-05-18T07:59:29.211Z,90.10
2023-05-18T08:01:57.855Z,89.90
2023-05-18T08:04:24.937Z,89.90
2023-05-18T08:06:54.764Z,89.80
2023-05-18T08:09:24.655Z,90.00
2023-05-18T08:11:52.202Z,89.90
2023-05-18T08:14:19.182Z,90.00
2023-05-18T08:16:46.584Z,90.10
2023-05-18T08:19:13.418Z,90.10
2023-05-18T08:21:40.342Z,90.00
2023-05-18T08:24:07.399Z,90.00
2023-05-18T08:26:34.323Z,90.00
2023-05-18T08:29:01.100Z,90.00
2023-05-18T08:31:28.357Z,90.00
2023-05-18T08:33:55.170Z,90.10
2023-05-18T08:36:21.921Z,90.00
2023-05-18T08:38:48.673Z,90.10
2023-05-18T08:41:19.893Z,90.30
2023-05-18T08:43:47.996Z,90.30
2023-05-18T08:46:21.597Z,90.20
2023-05-18T08:48:49.135Z,90.20
2023-05-18T08:51:19.745Z,90.70
2023-05-18T08:53:51.965Z,91.10
2023-05-18T08:56:22.078Z,90.80
2023-05-18T08:58:50.181Z,90.70
2023-05-18T09:01:17.814Z,91.00
2023-05-18T09:03:45.406Z,91.20
2023-05-18T09:06:12.527Z,90.90
2023-05-18T09:08:39.347Z,91.00
2023-05-18T09:11:06.242Z,91.10
2023-05-18T09:13:32.958Z,91.10
2023-05-18T09:15:59.726Z,91.00
2023-05-18T09:18:28.403Z,91.10
2023-05-18T09:20:55.407Z,91.00
2023-05-18T09:23:22.458Z,91.00
2023-05-18T09:25:51.904Z,90.90
2023-05-18T09:28:37.788Z,90.80
2023-05-18T09:31:05.249Z,90.80
2023-05-18T09:33:37.582Z,90.70
2023-05-18T09:36:08.203Z,93.70
2023-05-18T09:38:38.626Z,93.20
2023-05-18T09:41:10.316Z,92.50
2023-05-18T09:43:37.104Z,92.50
2023-05-18T09:46:07.476Z,92.50
2023-05-18T09:48:36.735Z,91.40
2023-05-18T09:51:06.799Z,87.70
2023-05-18T09:53:37.444Z,85.60
2023-05-18T09:56:06.237Z,86.50
2023-05-18T09:58:34.164Z,88.00
2023-05-18T10:01:01.876Z,87.00
2023-05-18T10:03:38.744Z,87.50
2023-05-18T10:06:09.138Z,86.70
2023-05-18T10:08:36.433Z,85.80
2023-05-18T10:11:03.806Z,85.20
2023-05-18T10:13:31.840Z,86.00
2023-05-18T10:15:59.950Z,85.00
2023-05-18T10:18:31.214Z,86.80
2023-05-18T10:21:00.317Z,86.80
2023-05-18T10:23:28.623Z,84.40
2023-05-18T10:25:55.357Z,84.80
2023-05-18T10:28:27.499Z,84.00
2023-05-18T10:30:55.742Z,82.70
2023-05-18T10:33:29.160Z,81.80
2023-05-18T10:35:56.677Z,81.80
2023-05-18T10:38:27.656Z,82.30
2023-05-18T10:40:58.819Z,80.70
2023-05-18T10:43:27.526Z,81.10
2023-05-18T10:45:55.457Z,81.10
2023-05-18T10:48:23.024Z,81.20
2023-05-18T10:50:50.841Z,81.70
2023-05-18T10:53:21.972Z,80.80
2023-05-18T10:55:49.414Z,81.10
2023-05-18T10:58:17.827Z,81.10
2023-05-18T11:00:51.324Z,79.70
2023-05-18T11:03:18.734Z,80.20
2023-05-18T11:05:50.459Z,80.20
2023-05-18T11:08:26.709Z,80.10
2023-05-18T11:11:04.039Z,80.80
2023-05-18T11:13:31.464Z,78.20
2023-05-18T11:15:59.340Z,76.70
2023-05-18T11:18:35.220Z,77.20
2023-05-18T11:21:01.991Z,78.00
2023-05-18T11:23:34.786Z,77.90
2023-05-18T11:26:04.808Z,77.80
2023-05-18T11:28:33.564Z,78.40
2023-05-18T11:31:00.332Z,80.40
2023-05-18T11:33:29.836Z,79.40
2023-05-18T11:36:12.250Z,78.90
2023-05-18T11:38:55.601Z,78.90
2023-05-18T11:41:29.904Z,78.80
2023-05-18T11:44:12.337Z,79.40
2023-05-18T11:47:01.538Z,79.00
2023-05-18T11:49:31.927Z,79.10
2023-05-18T11:52:01.783Z,77.50
2023-05-18T11:54:28.608Z,77.50
2023-05-18T11:56:55.416Z,78.50
2023-05-18T11:59:37.191Z,78.00
2023-05-18T12:02:04.173Z,79.20
2023-05-18T12:04:32.606Z,78.60
2023-05-18T12:06:59.722Z,78.70
2023-05-18T12:09:26.677Z,78.30
2023-05-18T12:11:54.753Z,78.70
2023-05-18T12:14:21.633Z,78.10
2023-05-18T12:16:49.546Z,77.90
2023-05-18T12:19:18.249Z,78.00
2023-05-18T12:21:45.126Z,79.20
2023-05-18T12:24:11.903Z,79.20
2023-05-18T12:26:41.179Z,77.70
2023-05-18T12:29:09.541Z,77.70
2023-05-18T12:31:39.542Z,78.40
2023-05-18T12:34:06.448Z,77.90
2023-05-18T12:36:33.672Z,78.40
2023-05-18T12:39:01.879Z,79.10
2023-05-18T12:41:28.742Z,77.90
2023-05-18T12:43:55.651Z,78.10
2023-05-18T12:46:25.690Z,77.80
2023-05-18T12:48:59.579Z,77.90
2023-05-18T12:51:30.989Z,78.50
2023-05-18T12:53:57.830Z,79.50
2023-05-18T12:56:27.358Z,78.90
2023-05-18T12:59:03.054Z,78.70
2023-05-18T13:01:30.584Z,78.90
2023-05-18T13:04:00.536Z,78.70
2023-05-18T13:06:27.379Z,78.80
2023-05-18T13:08:55.708Z,79.30
2023-05-18T13:11:25.234Z,80.70
2023-05-18T13:14:02.267Z,80.30
2023-05-18T13:16:30.223Z,80.50
2023-05-18T13:19:01.954Z,80.00
2023-05-18T13:21:28.791Z,80.00
2023-05-18T13:23:55.646Z,80.40
2023-05-18T13:26:23.170Z,80.40
2023-05-18T13:28:52.043Z,80.60
2023-05-18T13:31:19.545Z,81.70
2023-05-18T13:33:46.803Z,81.20
2023-05-18T13:36:13.664Z,81.50
2023-05-18T13:38:41.444Z,82.40
2023-05-18T13:41:12.507Z,83.60
2023-05-18T13:43:39.427Z,83.60
2023-05-18T13:46:06.356Z,83.70
2023-05-18T13:48:33.235Z,83.60
2023-05-18T13:51:00.263Z,84.10
2023-05-18T13:53:27.312Z,85.00
2023-05-18T13:55:54.109Z,85.70
2023-05-18T13:58:20.887Z,85.60
2023-05-18T14:00:47.766Z,86.20
2023-05-18T14:03:15.362Z,86.30
2023-05-18T14:05:42.351Z,86.00
2023-05-18T14:08:09.381Z,85.90
2023-05-18T14:13:11.113Z,88.30
2023-05-18T14:15:37.884Z,87.00
2023-05-18T14:18:04.838Z,85.10
2023-05-18T14:20:31.965Z,84.30
2023-05-18T14:22:59.594Z,73.30
2023-05-18T14:25:27.074Z,81.00
2023-05-18T14:27:53.953Z,77.40
2023-05-18T14:30:21.026Z,76.70
2023-05-18T14:32:47.775Z,75.20
2023-05-18T14:35:14.840Z,78.20
2023-05-18T14:37:41.616Z,79.10
2023-05-18T14:40:08.767Z,80.30
2023-05-18T14:42:37.025Z,80.90
2023-05-18T14:45:04.100Z,81.80
2023-05-18T14:47:30.841Z,81.00
2023-05-18T14:49:57.624Z,81.20
2023-05-18T14:52:24.391Z,80.30
2023-05-18T14:54:51.125Z,80.50
2023-05-18T14:57:17.905Z,80.80
2023-05-18T14:59:44.700Z,81.00
2023-05-18T15:02:11.549Z,80.50
2023-05-18T15:04:38.386Z,80.00
2023-05-18T15:07:06.314Z,80.60
2023-05-18T15:09:33.133Z,80.90
2023-05-18T15:11:59.945Z,81.20
2023-05-18T15:14:26.962Z,80.40
2023-05-18T15:16:53.772Z,81.50
2023-05-18T15:19:20.598Z,81.50
2023-05-18T15:21:48.626Z,80.80
2023-05-18T15:24:15.453Z,81.80
2023-05-18T15:26:42.395Z,81.00
2023-05-18T15:29:09.306Z,80.70
2023-05-18T15:31:39.793Z,80.70
2023-05-18T15:34:06.835Z,80.60
2023-05-18T15:36:34.088Z,80.50
2023-05-18T15:39:04.384Z,81.00
2023-05-18T15:41:34.096Z,80.70
2023-05-18T15:44:01.822Z,81.20
2023-05-18T15:46:32.182Z,81.40
2023-05-18T15:48:59.233Z,81.50
2023-05-18T15:51:26.019Z,81.60
2023-05-18T15:53:52.831Z,82.70
2023-05-18T15:56:19.577Z,81.70
2023-05-18T15:58:46.396Z,81.50
2023-05-18T16:01:13.321Z,76.80
2023-05-18T16:03:40.307Z,74.10
2023-05-18T16:06:07.249Z,71.00
2023-05-18T16:08:33.998Z,65.70
2023-05-18T16:11:02.220Z,66.30
2023-05-18T16:13:29.531Z,63.10
2023-05-18T16:15:56.311Z,63.10
2023-05-18T16:18:23.158Z,62.70
2023-05-18T16:20:49.942Z,59.50
2023-05-18T16:23:16.695Z,60.00
2023-05-18T16:25:43.696Z,59.90
2023-05-18T16:28:10.708Z,60.70
2023-05-18T16:30:37.493Z,60.40
2023-05-18T16:33:04.354Z,61.00
2023-05-18T16:35:31.877Z,62.70
2023-05-18T16:37:59.189Z,63.60
2023-05-18T16:40:26.263Z,64.20
2023-05-18T16:42:52.966Z,64.50
2023-05-18T16:45:19.818Z,65.10
2023-05-18T16:47:46.767Z,65.80
2023-05-18T16:50:13.556Z,66.10
2023-05-18T16:52:40.280Z,66.30
2023-05-18T16:55:07.303Z,66.90
2023-05-18T16:57:34.135Z,67.40
2023-05-18T17:00:01.632Z,68.00
2023-05-18T17:02:28.721Z,68.10
2023-05-18T17:04:55.818Z,67.80
2023-05-18T17:07:22.668Z,68.20
2023-05-18T17:09:49.441Z,68.20
2023-05-18T17:12:16.271Z,68.10
2023-05-18T17:14:43.006Z,67.50
2023-05-18T17:17:09.806Z,68.00
2023-05-18T17:19:36.782Z,67.40
2023-05-18T17:22:03.854Z,68.60
2023-05-18T17:24:31.106Z,69.30
2023-05-18T17:26:58.144Z,68.70
2023-05-18T17:29:25.265Z,69.00
2023-05-18T17:31:52.017Z,69.00
2023-05-18T17:34:18.864Z,68.70
2023-05-18T17:36:45.867Z,68.60
2023-05-18T17:39:12.828Z,68.60
2023-05-18T17:41:39.573Z,68.50
2023-05-18T17:44:06.900Z,69.30
2023-05-18T17:46:36.584Z,67.80
2023-05-18T17:49:05.550Z,67.30
2023-05-18T17:51:33.465Z,68.10
2023-05-18T17:54:01.212Z,68.20
2023-05-18T17:56:28.140Z,68.80
2023-05-18T17:58:54.883Z,68.80
2023-05-18T18:01:21.790Z,68.90
2023-05-18T18:03:48.794Z,69.50
2023-05-18T18:06:17.650Z,70.00
2023-05-18T18:08:45.138Z,70.10
2023-05-18T18:11:11.988Z,69.90
2023-05-18T18:13:38.743Z,70.20
2023-05-18T18:16:06.049Z,70.80
2023-05-18T18:18:36.194Z,70.90
2023-05-18T18:21:03.983Z,71.00
2023-05-18T18:23:37.083Z,71.30
2023-05-18T18:26:04.627Z,71.80
2023-05-18T18:28:32.202Z,72.10
2023-05-18T18:31:01.180Z,73.10
2023-05-18T18:33:31.991Z,72.90
2023-05-18T18:35:59.310Z,72.80
2023-05-18T18:38:29.276Z,73.70
2023-05-18T18:41:01.858Z,78.30
2023-05-18T18:43:28.756Z,78.10
2023-05-18T18:45:57.065Z,78.70
2023-05-18T18:48:24.460Z,77.20
2023-05-18T18:50:51.254Z,76.60
2023-05-18T18:53:18.049Z,76.70
2023-05-18T18:55:45.960Z,77.10
2023-05-18T18:58:12.698Z,76.80
2023-05-18T19:00:39.496Z,77.00
2023-05-18T19:03:06.518Z,76.50
2023-05-18T19:05:33.615Z,76.20
2023-05-18T19:08:01.726Z,76.30
2023-05-18T19:10:28.456Z,76.00
2023-05-18T19:12:55.561Z,76.00
2023-05-18T19:15:22.378Z,76.10
2023-05-18T19:17:53.570Z,75.90
2023-05-18T19:20:20.947Z,76.50
2023-05-18T19:22:47.754Z,76.60
2023-05-18T19:25:14.521Z,77.10
2023-05-18T19:27:41.276Z,77.40
2023-05-18T19:30:08.715Z,78.30
2023-05-18T19:32:35.861Z,77.50
2023-05-18T19:35:02.738Z,77.30
2023-05-18T19:37:29.799Z,78.40
2023-05-18T19:39:56.639Z,77.10
2023-05-18T19:42:23.650Z,77.50
2023-05-18T19:44:51.301Z,77.40
2023-05-18T19:47:18.050Z,77.40
2023-05-18T19:49:44.797Z,77.20
2023-05-18T19:52:11.514Z,77.40
2023-05-18T19:54:38.873Z,77.40
2023-05-18T19:57:05.759Z,77.60
2023-05-18T19:59:32.598Z,77.60
2023-05-18T20:01:59.587Z,77.40
2023-05-18T20:04:28.474Z,77.70
2023-05-18T20:06:59.281Z,77.70
2023-05-18T20:09:26.564Z,77.50
2023-05-18T20:11:54.334Z,77.60
2023-05-18T20:14:21.238Z,77.40
2023-05-18T20:16:48.116Z,77.60
2023-05-18T20:19:17.830Z,79.00
2023-05-18T20:21:48.503Z,79.30
2023-05-18T20:24:15.318Z,79.10
2023-05-18T20:26:42.073Z,79.60
2023-05-18T20:29:08.806Z,80.10
2023-05-18T20:31:35.948Z,80.30
2023-05-18T20:34:03.295Z,79.70
2023-05-18T20:36:30.095Z,79.70
2023-05-18T20:38:57.154Z,79.50
2023-05-18T20:41:23.921Z,79.20
2023-05-18T20:43:51.218Z,79.10
2023-05-18T20:46:23.860Z,79.10
2023-05-18T20:48:52.621Z,79.00
2023-05-18T20:51:21.796Z,78.70
2023-05-18T20:53:49.338Z,78.60
2023-05-18T20:56:16.039Z,79.30
2023-05-18T20:58:48.473Z,78.40
2023-05-18T21:01:16.155Z,78.30
2023-05-18T21:03:45.186Z,77.80
2023-05-18T21:06:13.055Z,77.50
2023-05-18T21:08:40.538Z,77.50
2023-05-18T21:11:07.522Z,77.60
2023-05-18T21:13:36.745Z,77.20
2023-05-18T21:16:06.458Z,77.40
2023-05-18T21:18:34.396Z,77.30
2023-05-18T21:21:02.237Z,77.20
2023-05-18T21:23:29.080Z,77.10
2023-05-18T21:25:56.793Z,77.10
2023-05-18T21:28:24.982Z,77.20
2023-05-18T21:30:52.284Z,77.40
2023-05-18T21:33:19.279Z,77.70
2023-05-18T21:35:46.129Z,79.80
2023-05-18T21:38:12.966Z,79.40
2023-05-18T21:40:43.484Z,79.30
2023-05-18T21:43:10.659Z,78.90
2023-05-18T21:45:37.757Z,79.00
2023-05-18T21:48:05.496Z,78.90
2023-05-18T21:50:35.486Z,78.90
2023-05-18T21:53:03.299Z,78.80
2023-05-18T21:55:33.413Z,78.80
2023-05-18T21:58:00.607Z,78.80
2023-05-18T22:00:28.508Z,79.00
2023-05-18T22:02:55.686Z,79.20
2023-05-18T22:05:22.448Z,79.50
2023-05-18T22:07:49.716Z,79.80
2023-05-18T22:10:17.996Z,80.00
2023-05-18T22:12:45.081Z,80.30
2023-05-18T22:15:12.207Z,81.00
2023-05-18T22:17:39.250Z,80.40
2023-05-18T22:20:11.064Z,80.90
2023-05-18T22:22:38.238Z,81.00
2023-05-18T22:25:05.278Z,81.20
2023-05-18T22:27:33.813Z,81.20
2023-05-18T22:30:01.065Z,81.40
2023-05-18T22:32:27.939Z,81.60
2023-05-18T22:34:55.796Z,81.90
2023-05-18T22:37:22.537Z,81.90
2023-05-18T22:39:49.235Z,82.10
2023-05-18T22:42:15.995Z,82.20
2023-05-18T22:44:42.840Z,82.30
2023-05-18T22:47:09.570Z,82.40
2023-05-18T22:49:36.306Z,82.50
2023-05-18T22:52:06.602Z,82.70
2023-05-18T22:54:33.526Z,82.70
2023-05-18T22:57:00.360Z,82.80
2023-05-18T22:59:28.621Z,83.10
2023-05-18T23:01:55.409Z,83.50
2023-05-18T23:04:22.228Z,83.40
2023-05-18T23:06:49.679Z,83.40
2023-05-18T23:09:16.993Z,83.60
2023-05-18T23:11:48.266Z,84.50
2023-05-18T23:14:15.171Z,83.90
2023-05-18T23:16:42.950Z,84.00
2023-05-18T23:19:12.297Z,84.00
2023-05-18T23:21:42.083Z,83.90
2023-05-18T23:24:11.996Z,84.10
2023-05-18T23:26:41.618Z,84.30
2023-05-18T23:29:08.639Z,84.20
2023-05-18T23:31:35.467Z,84.20
2023-05-18T23:34:02.531Z,84.20
2023-05-18T23:36:30.670Z,84.20
2023-05-18T23:39:01.416Z,84.20
2023-05-18T23:41:30.781Z,84.30
2023-05-18T23:43:57.832Z,84.40
2023-05-18T23:46:25.056Z,84.60
2023-05-18T23:48:52.480Z,85.60
2023-05-18T23:51:22.394Z,84.70
2023-05-18T23:53:50.516Z,84.90
2023-05-18T23:56:17.730Z,85.00
2023-05-18T23:58:45.736Z,85.10
